createdAt,value
2023-02-02T00:00:40.580Z,5.97
2023-02-02T00:03:43.372Z,4.40
2023-02-02T00:06:47.432Z,4.60
2023-02-02T00:09:50.259Z,4.90
2023-02-02T00:12:54.075Z,4.18
2023-02-02T00:15:56.857Z,4.40
2023-02-02T00:19:02.430Z,7.78
2023-02-02T00:22:05.039Z,4.13
2023-02-02T00:25:08.342Z,4.50
2023-02-02T00:28:10.930Z,4.47
2023-02-02T00:31:13.631Z,5.07
2023-02-02T00:34:17.443Z,4.47
2023-02-02T00:37:22.539Z,6.13
2023-02-02T00:40:25.220Z,4.25
2023-02-02T00:43:27.747Z,4.15
2023-02-02T00:46:31.473Z,4.35
2023-02-02T00:49:34.142Z,4.78
2023-02-02T00:52:36.775Z,4.90
2023-02-02T00:55:39.386Z,5.15
2023-02-02T00:58:42.195Z,4.97
2023-02-02T01:01:45.101Z,4.05
2023-02-02T01:04:48.003Z,4.80
2023-02-02T01:07:50.855Z,3.60
2023-02-02T01:10:53.639Z,4.28
2023-02-02T01:13:58.362Z,4.28
2023-02-02T01:17:00.961Z,5.90
2023-02-02T01:20:05.065Z,5.25
2023-02-02T01:23:07.727Z,3.93
2023-02-02T01:26:12.535Z,4.00
2023-02-02T01:29:15.804Z,3.38
2023-02-02T01:32:18.440Z,5.05
2023-02-02T01:35:22.401Z,4.63
2023-02-02T01:38:26.725Z,3.27
2023-02-02T01:41:29.579Z,3.95
2023-02-02T01:44:57.215Z,4.38
2023-02-02T01:48:00.719Z,4.68
2023-02-02T01:51:11.699Z,4.28
2023-02-02T01:54:33.033Z,3.67
2023-02-02T01:57:49.389Z,3.85
2023-02-02T02:00:54.461Z,5.60
2023-02-02T02:03:57.567Z,5.25
2023-02-02T02:07:03.746Z,4.65
2023-02-02T02:10:08.043Z,3.70
2023-02-02T02:13:11.859Z,4.20
2023-02-02T02:16:27.666Z,4.28
2023-02-02T02:20:14.008Z,5.72
2023-02-02T02:23:59.976Z,5.40
2023-02-02T02:27:13.197Z,3.80
2023-02-02T02:30:37.612Z,5.15
2023-02-02T02:33:59.446Z,5.72
2023-02-02T02:37:12.111Z,4.28
2023-02-02T02:40:26.512Z,4.47
2023-02-02T02:43:39.714Z,4.23
2023-02-02T02:46:43.392Z,3.35
2023-02-02T02:49:48.405Z,3.53
2023-02-02T02:53:00.802Z,3.47
2023-02-02T02:56:17.023Z,4.45
2023-02-02T02:59:47.795Z,4.03
2023-02-02T03:03:09.382Z,3.70
2023-02-02T03:06:12.294Z,5.07
2023-02-02T03:09:25.885Z,4.93
2023-02-02T03:12:28.758Z,3.72
2023-02-02T03:15:31.579Z,4.87
2023-02-02T03:18:35.014Z,4.00
2023-02-02T03:21:37.882Z,3.65
2023-02-02T03:24:40.499Z,3.38
2023-02-02T03:27:43.185Z,3.67
2023-02-02T03:30:47.337Z,3.77
2023-02-02T03:33:50.298Z,3.80
2023-02-02T03:36:53.129Z,3.70
2023-02-02T03:39:55.702Z,4.32
2023-02-02T03:42:58.882Z,4.32
2023-02-02T03:46:04.453Z,3.70
2023-02-02T03:49:07.343Z,4.25
2023-02-02T03:52:12.750Z,4.55
2023-02-02T03:55:15.531Z,3.63
2023-02-02T03:58:18.234Z,3.70
2023-02-02T04:01:29.377Z,4.67
2023-02-02T04:04:32.115Z,3.45
2023-02-02T04:07:34.775Z,4.85
2023-02-02T04:10:39.742Z,4.30
2023-02-02T04:13:43.584Z,3.50
2023-02-02T04:16:46.211Z,3.63
2023-02-02T04:19:49.083Z,4.50
2023-02-02T04:22:51.997Z,4.22
2023-02-02T04:25:54.878Z,4.47
2023-02-02T04:28:57.762Z,4.25
2023-02-02T04:32:00.457Z,3.30
2023-02-02T04:35:03.205Z,3.45
2023-02-02T04:38:06.000Z,4.28
2023-02-02T04:41:11.579Z,3.53
2023-02-02T04:44:16.125Z,4.00
2023-02-02T04:47:18.722Z,3.30
2023-02-02T04:50:21.719Z,3.40
2023-02-02T04:53:24.384Z,4.68
2023-02-02T04:56:29.205Z,2.70
2023-02-02T04:59:32.043Z,3.65
2023-02-02T05:02:39.211Z,4.30
2023-02-02T05:05:42.013Z,3.40
2023-02-02T05:08:45.926Z,5.18
2023-02-02T05:11:49.743Z,3.70
2023-02-02T05:14:52.351Z,4.28
2023-02-02T05:17:55.283Z,3.57
2023-02-02T05:21:03.284Z,3.45
2023-02-02T05:24:06.173Z,3.90
2023-02-02T05:27:08.743Z,2.75
2023-02-02T05:30:13.252Z,3.20
2023-02-02T05:33:18.816Z,2.97
2023-02-02T05:36:21.593Z,2.97
2023-02-02T05:39:24.616Z,4.25
2023-02-02T05:42:27.198Z,3.45
2023-02-02T05:45:29.911Z,2.75
2023-02-02T05:48:32.638Z,4.63
2023-02-02T05:51:40.701Z,3.67
2023-02-02T05:54:43.738Z,4.80
2023-02-02T05:57:46.602Z,3.35
2023-02-02T06:00:49.682Z,3.95
2023-02-02T06:03:52.485Z,4.47
2023-02-02T06:06:55.115Z,3.42
2023-02-02T06:09:58.424Z,4.68
2023-02-02T06:13:01.107Z,3.17
2023-02-02T06:16:04.296Z,4.05
2023-02-02T06:19:07.247Z,3.83
2023-02-02T06:22:09.852Z,3.22
2023-02-02T06:25:12.752Z,3.63
2023-02-02T06:28:15.383Z,4.35
2023-02-02T06:31:19.642Z,4.25
2023-02-02T06:34:22.594Z,5.77
2023-02-02T06:37:25.773Z,4.32
2023-02-02T06:40:29.641Z,4.30
2023-02-02T06:43:34.070Z,3.92
2023-02-02T06:46:38.285Z,4.55
2023-02-02T06:49:41.911Z,4.17
2023-02-02T06:52:52.454Z,4.03
2023-02-02T06:56:03.702Z,5.72
2023-02-02T06:59:06.929Z,5.65
2023-02-02T07:02:12.127Z,5.60
2023-02-02T07:05:15.040Z,4.20
2023-02-02T07:08:18.061Z,5.45
2023-02-02T07:11:21.956Z,4.35
2023-02-02T07:14:27.110Z,3.35
2023-02-02T07:17:29.677Z,6.75
2023-02-02T07:20:33.782Z,6.27
2023-02-02T07:23:36.533Z,6.47
2023-02-02T07:26:41.431Z,6.75
2023-02-02T07:29:45.561Z,5.93
2023-02-02T07:32:54.780Z,6.15
2023-02-02T07:35:57.703Z,4.60
2023-02-02T07:39:04.018Z,6.28
2023-02-02T07:42:08.736Z,6.07
2023-02-02T07:45:26.578Z,5.35
2023-02-02T07:48:31.286Z,6.03
2023-02-02T07:51:34.285Z,5.80
2023-02-02T07:54:41.872Z,5.68
2023-02-02T07:58:10.975Z,9.93
2023-02-02T08:01:17.573Z,7.70
2023-02-02T08:04:21.276Z,8.75
2023-02-02T08:07:24.930Z,12.27
2023-02-02T08:10:28.681Z,8.95
2023-02-02T08:13:33.230Z,10.57
2023-02-02T08:16:36.421Z,6.75
2023-02-02T08:19:39.374Z,11.00
2023-02-02T08:22:45.259Z,6.83
2023-02-02T08:25:50.219Z,7.70
2023-02-02T08:28:58.387Z,7.47
2023-02-02T08:32:02.097Z,8.68
2023-02-02T08:35:05.081Z,7.35
2023-02-02T08:38:08.142Z,8.93
2023-02-02T08:41:13.787Z,8.95
2023-02-02T08:44:19.616Z,7.10
2023-02-02T08:47:24.165Z,6.40
2023-02-02T08:50:27.192Z,7.88
2023-02-02T08:53:30.483Z,5.93
2023-02-02T08:56:33.398Z,9.80
2023-02-02T08:59:36.408Z,9.02
2023-02-02T09:02:40.312Z,9.60
2023-02-02T09:05:44.306Z,7.90
2023-02-02T09:12:08.981Z,7.30
2023-02-02T09:15:12.876Z,9.75
2023-02-02T09:18:15.753Z,9.35
2023-02-02T09:21:20.220Z,9.30
2023-02-02T09:24:24.411Z,9.30
2023-02-02T09:27:27.296Z,10.20
2023-02-02T09:30:34.847Z,8.57
2023-02-02T09:33:39.861Z,10.63
2023-02-02T09:36:44.146Z,5.55
2023-02-02T09:39:46.805Z,8.30
2023-02-02T09:42:49.980Z,7.32
2023-02-02T09:46:07.396Z,9.35
2023-02-02T09:49:21.339Z,10.32
2023-02-02T09:52:34.008Z,8.32
2023-02-02T09:55:45.305Z,9.53
2023-02-02T09:58:55.039Z,8.65
2023-02-02T10:02:03.631Z,11.57
2023-02-02T10:05:15.457Z,8.55
2023-02-02T10:08:34.690Z,9.75
2023-02-02T10:11:50.866Z,9.80
2023-02-02T10:15:06.551Z,13.82
2023-02-02T10:18:37.251Z,10.05
2023-02-02T10:22:06.524Z,9.45
2023-02-02T10:25:14.517Z,5.03
2023-02-02T10:28:19.561Z,10.33
2023-02-02T10:31:41.350Z,12.10
2023-02-02T10:35:23.698Z,12.07
2023-02-02T10:38:45.055Z,8.27
2023-02-02T10:42:32.335Z,5.97
2023-02-02T10:45:38.475Z,6.60
2023-02-02T10:48:45.454Z,8.02
2023-02-02T10:52:17.943Z,11.73
2023-02-02T10:55:39.831Z,11.30
2023-02-02T10:59:14.578Z,8.18
2023-02-02T11:02:21.100Z,8.53
2023-02-02T11:05:48.099Z,8.68
2023-02-02T11:09:00.498Z,9.07
2023-02-02T11:12:25.851Z,8.23
2023-02-02T11:15:31.201Z,7.10
2023-02-02T11:18:35.655Z,8.90
2023-02-02T11:21:40.757Z,8.82
2023-02-02T11:28:50.672Z,9.75
2023-02-02T11:31:57.268Z,8.88
2023-02-02T11:35:05.554Z,8.73
2023-02-02T11:38:15.012Z,8.23
2023-02-02T11:41:19.280Z,9.23
2023-02-02T11:44:26.726Z,7.75
2023-02-02T11:47:33.662Z,7.03
2023-02-02T11:50:36.781Z,10.07
2023-02-02T11:53:48.984Z,11.13
2023-02-02T11:56:54.208Z,8.07
2023-02-02T12:00:17.981Z,11.90
2023-02-02T12:03:30.390Z,7.88
2023-02-02T12:06:41.448Z,10.73
2023-02-02T12:09:48.754Z,7.80
2023-02-02T12:13:56.752Z,7.22
2023-02-02T12:17:20.923Z,7.63
2023-02-02T12:20:40.179Z,8.18
2023-02-02T12:24:01.585Z,9.57
2023-02-02T12:27:51.353Z,7.05
2023-02-02T12:31:57.426Z,8.68
2023-02-02T12:35:29.165Z,9.90
2023-02-02T12:39:07.830Z,10.32
2023-02-02T12:42:23.201Z,8.63
2023-02-02T12:46:06.652Z,11.02
2023-02-02T12:49:47.387Z,11.05
2023-02-02T12:53:31.841Z,9.57
2023-02-02T12:56:54.658Z,25.80
2023-02-02T13:00:20.172Z,13.60
2023-02-02T13:03:33.528Z,7.80
2023-02-02T13:10:39.768Z,9.68
2023-02-02T13:13:42.573Z,7.70
2023-02-02T13:16:49.369Z,14.57
2023-02-02T13:19:55.609Z,8.88
2023-02-02T13:23:07.337Z,8.82
2023-02-02T13:26:22.124Z,9.75
2023-02-02T13:29:47.614Z,8.77
2023-02-02T13:32:53.610Z,8.17
2023-02-02T13:36:02.811Z,13.35
2023-02-02T13:39:16.373Z,10.93
2023-02-02T13:43:05.382Z,13.30
2023-02-02T13:46:19.806Z,10.85
2023-02-02T13:49:37.007Z,12.30
2023-02-02T13:52:45.442Z,11.75
2023-02-02T13:55:51.078Z,13.32
2023-02-02T13:59:03.066Z,12.77
2023-02-02T14:02:23.760Z,10.15
2023-02-02T14:05:41.437Z,10.40
2023-02-02T14:08:49.185Z,14.52
2023-02-02T14:12:13.677Z,11.60
2023-02-02T14:15:16.502Z,12.43
2023-02-02T14:18:51.084Z,8.55
2023-02-02T14:22:08.938Z,11.37
2023-02-02T14:25:29.678Z,12.88
2023-02-02T14:28:44.941Z,12.30
2023-02-02T14:31:54.839Z,12.52
2023-02-02T14:35:10.480Z,11.13
2023-02-02T14:38:36.483Z,13.57
2023-02-02T14:42:26.940Z,15.15
2023-02-02T14:45:31.693Z,10.32
2023-02-02T14:48:35.120Z,11.68
2023-02-02T14:51:48.315Z,12.13
2023-02-02T14:54:52.223Z,13.70
2023-02-02T14:58:03.173Z,10.15
2023-02-02T15:01:25.095Z,18.48
2023-02-02T15:04:29.735Z,20.27
2023-02-02T15:07:32.185Z,13.15
2023-02-02T15:10:54.959Z,9.67
2023-02-02T15:14:07.122Z,14.85
2023-02-02T15:17:29.138Z,12.63
2023-02-02T15:20:53.763Z,16.42
2023-02-02T15:23:57.938Z,12.23
2023-02-02T15:27:03.074Z,15.17
2023-02-02T15:30:12.787Z,10.38
2023-02-02T15:33:43.957Z,12.57
2023-02-02T15:36:48.473Z,14.55
2023-02-02T15:39:58.435Z,16.13
2023-02-02T15:43:05.649Z,8.93
2023-02-02T15:46:13.523Z,11.82
2023-02-02T15:49:33.293Z,13.25
2023-02-02T15:52:47.065Z,14.85
2023-02-02T15:55:49.879Z,12.30
2023-02-02T15:58:57.418Z,17.07
2023-02-02T16:02:11.829Z,13.02
2023-02-02T16:05:36.717Z,8.10
2023-02-02T16:08:41.141Z,10.32
2023-02-02T16:11:45.496Z,11.98
2023-02-02T16:14:51.464Z,13.63
2023-02-02T16:18:04.482Z,8.45
2023-02-02T16:21:15.066Z,9.85
2023-02-02T16:24:32.723Z,9.32
2023-02-02T16:27:36.012Z,11.43
2023-02-02T16:30:40.488Z,13.10
2023-02-02T16:33:44.815Z,17.25
2023-02-02T16:37:28.334Z,16.20
2023-02-02T16:40:31.188Z,18.52
2023-02-02T16:43:35.489Z,19.45
2023-02-02T16:46:45.941Z,19.90
2023-02-02T16:49:48.696Z,20.38
2023-02-02T16:52:56.800Z,18.40
2023-02-02T16:55:59.599Z,15.93
2023-02-02T16:59:14.063Z,17.70
2023-02-02T17:02:24.683Z,16.53
2023-02-02T17:05:32.294Z,20.80
2023-02-02T17:08:39.451Z,16.95
2023-02-02T17:12:35.180Z,20.00
2023-02-02T17:15:38.252Z,18.60
2023-02-02T17:18:41.939Z,18.33
2023-02-02T17:21:44.934Z,18.13
2023-02-02T17:24:50.918Z,15.95
2023-02-02T17:27:59.364Z,14.43
2023-02-02T17:31:06.692Z,15.80
2023-02-02T17:34:15.104Z,13.53
2023-02-02T17:37:18.308Z,12.35
2023-02-02T17:40:23.194Z,13.65
2023-02-02T17:43:27.074Z,10.18
2023-02-02T17:46:33.739Z,18.35
2023-02-02T17:49:36.792Z,13.43
2023-02-02T17:52:40.170Z,21.73
2023-02-02T17:55:45.589Z,12.95
2023-02-02T17:58:51.566Z,12.65
2023-02-02T18:01:55.196Z,15.35
2023-02-02T18:04:58.295Z,13.23
2023-02-02T18:08:01.500Z,13.52
2023-02-02T18:11:04.954Z,9.32
2023-02-02T18:14:09.564Z,11.98
2023-02-02T18:17:12.504Z,13.02
2023-02-02T18:20:16.941Z,8.63
2023-02-02T18:23:21.599Z,15.45
2023-02-02T18:26:27.122Z,13.00
2023-02-02T18:29:30.838Z,11.75
2023-02-02T18:32:39.155Z,10.10
2023-02-02T18:35:43.473Z,8.00
2023-02-02T18:38:48.395Z,13.98
2023-02-02T18:41:52.177Z,12.63
2023-02-02T18:44:56.143Z,12.10
2023-02-02T18:48:00.051Z,11.07
2023-02-02T18:51:11.008Z,9.47
2023-02-02T18:54:15.090Z,12.18
2023-02-02T18:57:19.225Z,14.02
2023-02-02T19:00:22.982Z,11.00
2023-02-02T19:03:29.982Z,12.80
2023-02-02T19:06:54.551Z,9.17
2023-02-02T19:09:58.310Z,9.27
2023-02-02T19:13:20.869Z,12.68
2023-02-02T19:16:33.167Z,10.00
2023-02-02T19:19:40.447Z,11.07
2023-02-02T19:22:44.582Z,7.97
2023-02-02T19:25:51.692Z,12.18
2023-02-02T19:29:02.960Z,9.68
2023-02-02T19:32:15.156Z,9.52
2023-02-02T19:35:25.541Z,10.73
2023-02-02T19:38:29.950Z,10.00
2023-02-02T19:41:33.435Z,9.38
2023-02-02T19:44:38.996Z,12.40
2023-02-02T19:47:44.627Z,9.48
2023-02-02T19:50:48.412Z,7.90
2023-02-02T19:53:53.556Z,10.33
2023-02-02T19:57:02.293Z,11.73
2023-02-02T20:00:22.732Z,7.75
2023-02-02T20:03:35.845Z,10.50
2023-02-02T20:06:56.709Z,9.18
2023-02-02T20:10:42.688Z,8.37
2023-02-02T20:13:51.537Z,8.93
2023-02-02T20:17:13.648Z,10.93
2023-02-02T20:20:29.039Z,8.48
2023-02-02T20:23:41.300Z,10.77
2023-02-02T20:26:50.269Z,8.50
2023-02-02T20:30:01.699Z,10.68
2023-02-02T20:33:21.297Z,8.20
2023-02-02T20:36:27.867Z,10.20
2023-02-02T20:39:41.573Z,6.88
2023-02-02T20:42:46.501Z,9.33
2023-02-02T20:45:50.434Z,8.23
2023-02-02T20:48:55.914Z,9.43
2023-02-02T20:52:02.047Z,8.82
2023-02-02T20:55:05.819Z,8.68
2023-02-02T20:58:09.887Z,9.60
2023-02-02T21:01:13.061Z,6.63
2023-02-02T21:04:17.611Z,7.90
2023-02-02T21:07:21.897Z,10.90
2023-02-02T21:10:26.324Z,8.30
2023-02-02T21:13:30.278Z,6.53
2023-02-02T21:16:34.324Z,7.35
2023-02-02T21:19:37.873Z,9.73
2023-02-02T21:22:41.103Z,8.43
2023-02-02T21:25:43.959Z,7.88
2023-02-02T21:28:46.779Z,10.77
2023-02-02T21:31:49.607Z,7.47
2023-02-02T21:34:52.375Z,7.07
2023-02-02T21:37:57.686Z,7.95
2023-02-02T21:41:13.644Z,6.95
2023-02-02T21:44:19.537Z,6.37
2023-02-02T21:47:37.169Z,8.77
2023-02-02T21:50:41.706Z,7.90
2023-02-02T21:53:44.308Z,7.53
2023-02-02T21:56:47.214Z,5.97
2023-02-02T21:59:56.238Z,7.93
2023-02-02T22:02:59.477Z,8.38
2023-02-02T22:06:22.908Z,6.50
2023-02-02T22:09:28.077Z,8.00
2023-02-02T22:12:32.173Z,7.43
2023-02-02T22:15:34.902Z,7.83
2023-02-02T22:18:37.533Z,5.57
2023-02-02T22:21:40.218Z,5.82
2023-02-02T22:24:56.777Z,8.15
2023-02-02T22:28:05.048Z,9.45
2023-02-02T22:31:10.157Z,7.83
2023-02-02T22:34:12.969Z,6.75
2023-02-02T22:37:15.534Z,7.28
2023-02-02T22:40:22.406Z,8.68
2023-02-02T22:43:25.084Z,7.03
2023-02-02T22:46:27.819Z,7.67
2023-02-02T22:49:30.451Z,7.35
2023-02-02T22:52:32.998Z,5.93
2023-02-02T22:55:35.698Z,5.47
2023-02-02T22:58:38.259Z,7.07
2023-02-02T23:01:40.753Z,6.23
2023-02-02T23:04:43.291Z,6.40
2023-02-02T23:07:46.764Z,5.82
2023-02-02T23:10:49.386Z,6.32
2023-02-02T23:13:52.008Z,6.85
2023-02-02T23:16:54.520Z,8.17
2023-02-02T23:19:57.914Z,7.15
2023-02-02T23:23:00.522Z,4.80
2023-02-02T23:26:03.143Z,7.32
2023-02-02T23:29:05.651Z,5.05
2023-02-02T23:32:08.636Z,6.60
2023-02-02T23:35:11.399Z,7.15
2023-02-02T23:38:14.018Z,6.85
2023-02-02T23:41:16.978Z,5.78
2023-02-02T23:44:19.763Z,5.43
2023-02-02T23:47:22.501Z,6.50
2023-02-02T23:50:25.501Z,5.15
2023-02-02T23:53:28.790Z,6.88
2023-02-02T23:56:31.927Z,4.93
2023-02-02T23:59:34.582Z,6.00
